King George, Virginia
Current Conditions -  °F | °C
As of 11:55 AM on Friday 28 Nov 2014 (Local Time) from KEZF Reporting Station
Scattered Clouds Scattered Clouds  
Wind Chill: 35°   Ceiling: Unl
Heat Index: 40°   Visibility: 10mi
Dew Point: 19°   Wind: 8mph
Humidity: 43%   Direction: 330°NNW
Pressure: 30.3"   Gusts: 17mph
Location:  38.27°N, 77.18°W
Report Text: KEZF 281655Z AUTO 33007G15KT 10SM SCT050 05/M07 A3030 RMK AO2 T00471070
Loading
Personal Weather Stations






























Interactive Weather Map New forecast layout! Learn more

10-Day Weather Forecast

Advertisements
Track Severe Weather on mobile